createdAt,value
2022-12-23T00:01:29.765Z,57.40
2022-12-23T00:04:00.674Z,56.70
2022-12-23T00:06:30.843Z,56.80
2022-12-23T00:08:59.528Z,57.30
2022-12-23T00:11:29.872Z,57.70
2022-12-23T00:14:21.213Z,58.20
2022-12-23T00:16:51.616Z,58.90
2022-12-23T00:19:20.709Z,59.30
2022-12-23T00:21:50.759Z,59.50
2022-12-23T00:24:19.452Z,59.40
2022-12-23T00:26:48.175Z,59.70
2022-12-23T00:29:16.942Z,60.00
2022-12-23T00:31:45.719Z,60.10
2022-12-23T00:34:14.517Z,60.10
2022-12-23T00:36:43.349Z,60.20
2022-12-23T00:39:32.270Z,60.20
2022-12-23T00:42:18.363Z,60.40
2022-12-23T00:44:47.068Z,60.40
2022-12-23T00:47:37.223Z,59.90
2022-12-23T00:50:05.742Z,59.50
2022-12-23T00:52:34.417Z,59.70
2022-12-23T00:55:04.729Z,60.30
2022-12-23T00:57:33.662Z,60.40
2022-12-23T01:00:02.561Z,59.80
2022-12-23T01:02:48.603Z,60.00
2022-12-23T01:08:19.878Z,59.70
2022-12-23T01:10:48.563Z,59.50
2022-12-23T01:13:17.214Z,59.40
2022-12-23T01:15:48.900Z,59.30
2022-12-23T01:18:20.456Z,59.20
2022-12-23T01:20:49.090Z,58.60
2022-12-23T01:23:19.397Z,58.50
2022-12-23T01:25:48.437Z,58.10
2022-12-23T01:28:17.061Z,57.90
2022-12-23T01:30:45.617Z,57.80
2022-12-23T01:33:14.244Z,57.60
2022-12-23T01:35:42.893Z,57.50
2022-12-23T01:38:11.597Z,57.80
2022-12-23T01:40:44.677Z,57.90
2022-12-23T01:43:17.120Z,57.80
2022-12-23T01:45:46.272Z,57.80
2022-12-23T01:48:20.575Z,58.00
2022-12-23T01:50:54.866Z,58.00
2022-12-23T01:53:27.939Z,58.00
2022-12-23T01:56:04.301Z,58.10
2022-12-23T01:58:39.127Z,58.10
2022-12-23T02:01:25.902Z,58.40
2022-12-23T02:04:01.473Z,58.80
2022-12-23T02:06:52.426Z,59.20
2022-12-23T02:09:23.873Z,60.20
2022-12-23T02:12:30.622Z,60.70
2022-12-23T02:15:44.675Z,61.50
2022-12-23T02:18:35.919Z,61.80
2022-12-23T02:21:31.280Z,64.60
2022-12-23T02:24:57.065Z,65.70
2022-12-23T02:27:32.122Z,66.00
2022-12-23T02:30:37.001Z,65.30
2022-12-23T02:33:32.748Z,65.30
2022-12-23T02:36:22.848Z,66.90
2022-12-23T02:39:04.991Z,66.60
2022-12-23T02:41:42.660Z,66.70
2022-12-23T02:44:24.836Z,66.60
2022-12-23T02:47:02.204Z,65.90
2022-12-23T02:49:36.425Z,66.80
2022-12-23T02:52:13.816Z,67.40
2022-12-23T02:54:48.260Z,67.40
2022-12-23T02:57:24.185Z,66.80
2022-12-23T02:59:54.506Z,65.90
2022-12-23T03:02:24.667Z,66.20
2022-12-23T03:04:53.450Z,66.40
2022-12-23T03:07:30.932Z,66.80
2022-12-23T03:10:09.765Z,66.50
2022-12-23T03:12:59.395Z,65.80
2022-12-23T03:15:42.638Z,64.50
2022-12-23T03:18:27.426Z,64.40
2022-12-23T03:21:05.251Z,64.20
2022-12-23T03:23:41.582Z,64.00
2022-12-23T03:26:18.223Z,64.00
2022-12-23T03:28:58.725Z,64.40
2022-12-23T03:31:31.464Z,64.50
2022-12-23T03:34:09.469Z,64.60
2022-12-23T03:36:45.265Z,65.60
2022-12-23T03:39:21.535Z,66.10
2022-12-23T03:41:57.624Z,66.70
2022-12-23T03:44:31.958Z,66.00
2022-12-23T03:47:08.937Z,66.90
2022-12-23T03:49:44.318Z,67.80
2022-12-23T03:52:21.288Z,67.30
2022-12-23T03:54:56.053Z,67.50
2022-12-23T03:57:35.654Z,67.20
2022-12-23T04:00:05.139Z,67.00
2022-12-23T04:02:44.622Z,66.30
2022-12-23T04:05:24.907Z,66.60
2022-12-23T04:08:01.253Z,66.60
2022-12-23T04:10:30.964Z,66.60
2022-12-23T04:13:00.721Z,67.60
2022-12-23T04:15:30.158Z,67.40
2022-12-23T04:17:59.646Z,66.90
2022-12-23T04:20:29.769Z,65.90
2022-12-23T04:22:58.561Z,67.00
2022-12-23T04:25:27.161Z,66.60
2022-12-23T04:27:57.375Z,67.00
2022-12-23T04:30:31.672Z,66.90
2022-12-23T04:33:02.458Z,65.90
2022-12-23T04:35:32.835Z,66.00
2022-12-23T04:38:01.523Z,65.90
2022-12-23T04:40:30.075Z,65.70
2022-12-23T04:42:58.677Z,65.20
2022-12-23T04:45:27.378Z,64.80
2022-12-23T04:47:56.396Z,64.30
2022-12-23T04:50:25.037Z,63.90
2022-12-23T04:52:55.261Z,63.90
2022-12-23T04:55:24.195Z,63.70
2022-12-23T04:57:52.819Z,63.40
2022-12-23T05:00:22.657Z,63.50
2022-12-23T05:02:51.414Z,63.20
2022-12-23T05:05:20.060Z,63.70
2022-12-23T05:07:51.564Z,63.90
2022-12-23T05:10:21.702Z,63.80
2022-12-23T05:12:50.222Z,62.80
2022-12-23T05:15:18.957Z,62.50
2022-12-23T05:17:47.529Z,61.80
2022-12-23T05:20:16.307Z,61.40
2022-12-23T05:22:44.883Z,61.20
2022-12-23T05:25:13.536Z,62.00
2022-12-23T05:27:43.461Z,62.60
2022-12-23T05:30:13.189Z,62.60
2022-12-23T05:32:41.742Z,62.90
2022-12-23T05:35:11.396Z,63.00
2022-12-23T05:37:39.974Z,63.10
2022-12-23T05:40:10.616Z,62.80
2022-12-23T05:42:39.483Z,63.00
2022-12-23T05:45:11.085Z,63.00
2022-12-23T05:47:39.825Z,63.40
2022-12-23T05:50:10.353Z,63.20
2022-12-23T05:52:39.054Z,62.80
2022-12-23T05:55:09.613Z,62.70
2022-12-23T05:57:38.215Z,62.70
2022-12-23T06:00:10.797Z,63.30
2022-12-23T06:02:39.635Z,63.70
2022-12-23T06:05:09.615Z,63.20
2022-12-23T06:07:38.656Z,62.40
2022-12-23T06:10:10.333Z,62.00
2022-12-23T06:12:39.460Z,62.10
2022-12-23T06:15:10.986Z,62.30
2022-12-23T06:17:39.656Z,62.60
2022-12-23T06:20:17.896Z,62.50
2022-12-23T06:22:49.064Z,62.10
2022-12-23T06:25:18.302Z,62.10
2022-12-23T06:27:46.910Z,61.50
2022-12-23T06:30:17.250Z,61.70
2022-12-23T06:32:45.809Z,61.60
2022-12-23T06:35:14.514Z,61.50
2022-12-23T06:37:43.064Z,61.40
2022-12-23T06:40:13.250Z,61.40
2022-12-23T06:42:41.733Z,62.30
2022-12-23T06:45:12.100Z,62.50
2022-12-23T06:47:42.000Z,62.50
2022-12-23T06:50:11.458Z,62.80
2022-12-23T06:52:40.011Z,62.60
2022-12-23T06:55:09.535Z,63.00
2022-12-23T06:57:38.304Z,63.40
2022-12-23T07:00:09.117Z,63.80
2022-12-23T07:02:37.790Z,63.60
2022-12-23T07:05:08.473Z,63.00
2022-12-23T07:07:37.396Z,62.40
2022-12-23T07:10:07.826Z,61.80
2022-12-23T07:12:36.506Z,61.40
2022-12-23T07:15:05.788Z,60.60
2022-12-23T07:17:34.607Z,60.90
2022-12-23T07:20:12.499Z,60.40
2022-12-23T07:22:42.416Z,59.50
2022-12-23T07:25:11.398Z,59.80
2022-12-23T07:27:40.732Z,59.70
2022-12-23T07:30:11.636Z,59.90
2022-12-23T07:32:40.190Z,60.00
2022-12-23T07:35:09.519Z,60.00
2022-12-23T07:37:38.259Z,58.80
2022-12-23T07:40:10.575Z,59.60
2022-12-23T07:42:47.237Z,60.10
2022-12-23T07:45:16.133Z,60.20
2022-12-23T07:47:44.869Z,60.00
2022-12-23T07:50:14.308Z,59.80
2022-12-23T07:52:42.920Z,59.80
2022-12-23T07:55:13.210Z,60.30
2022-12-23T07:57:41.993Z,60.00
2022-12-23T08:00:14.260Z,60.40
2022-12-23T08:02:44.277Z,61.40
2022-12-23T08:05:14.328Z,61.30
2022-12-23T08:07:45.059Z,60.40
2022-12-23T08:10:15.174Z,59.90
2022-12-23T08:12:43.749Z,59.80
2022-12-23T08:15:12.630Z,59.40
2022-12-23T08:17:41.201Z,58.80
2022-12-23T08:20:11.019Z,58.90
2022-12-23T08:22:39.642Z,59.10
2022-12-23T08:25:09.507Z,59.00
2022-12-23T08:27:39.495Z,58.60
2022-12-23T08:30:10.915Z,58.20
2022-12-23T08:32:39.374Z,57.90
2022-12-23T08:35:09.015Z,57.50
2022-12-23T08:37:37.535Z,57.00
2022-12-23T08:40:07.449Z,56.40
2022-12-23T08:42:35.998Z,57.20
2022-12-23T08:45:06.475Z,57.30
2022-12-23T08:47:34.990Z,57.00
2022-12-23T08:50:03.538Z,57.90
2022-12-23T08:52:32.058Z,57.10
2022-12-23T08:55:00.498Z,57.00
2022-12-23T08:57:29.050Z,56.90
2022-12-23T08:59:57.525Z,56.80
2022-12-23T09:02:27.599Z,56.50
2022-12-23T09:04:59.075Z,56.50
2022-12-23T09:07:27.559Z,56.50
2022-12-23T09:09:56.088Z,56.40
2022-12-23T09:12:24.596Z,56.60
2022-12-23T09:14:53.213Z,56.30
2022-12-23T09:17:21.794Z,56.30
2022-12-23T09:19:53.298Z,56.20
2022-12-23T09:22:21.978Z,55.80
2022-12-23T09:24:50.497Z,55.70
2022-12-23T09:27:19.143Z,55.50
2022-12-23T09:29:47.600Z,56.70
2022-12-23T09:32:16.246Z,57.00
2022-12-23T09:34:44.729Z,56.80
2022-12-23T09:37:16.878Z,56.60
2022-12-23T09:39:45.390Z,55.90
2022-12-23T09:42:39.793Z,56.20
2022-12-23T09:45:26.834Z,57.10
2022-12-23T09:47:58.026Z,57.30
2022-12-23T09:50:31.294Z,57.30
2022-12-23T09:53:06.464Z,57.20
2022-12-23T09:55:48.226Z,57.00
2022-12-23T09:58:30.538Z,56.90
2022-12-23T10:01:15.057Z,57.20
2022-12-23T10:04:36.432Z,57.20
2022-12-23T10:07:26.503Z,57.60
2022-12-23T10:09:58.855Z,56.70
2022-12-23T10:12:40.028Z,56.80
2022-12-23T10:15:23.563Z,56.50
2022-12-23T10:18:01.120Z,56.20
2022-12-23T10:20:41.964Z,56.50
2022-12-23T10:23:18.303Z,56.70
2022-12-23T10:25:52.963Z,56.50
2022-12-23T10:28:21.820Z,56.70
2022-12-23T10:34:04.461Z,57.10
2022-12-23T10:36:44.333Z,56.70
2022-12-23T10:39:25.971Z,56.70
2022-12-23T10:42:13.646Z,56.80
2022-12-23T10:45:10.703Z,56.80
2022-12-23T10:48:02.012Z,57.00
2022-12-23T10:50:50.622Z,56.80
2022-12-23T10:53:33.990Z,56.40
2022-12-23T10:56:05.252Z,56.60
2022-12-23T10:58:41.927Z,56.40
2022-12-23T11:01:22.072Z,56.40
2022-12-23T11:04:06.193Z,56.40
2022-12-23T11:06:41.780Z,56.30
2022-12-23T11:09:17.719Z,56.20
2022-12-23T11:12:02.298Z,56.00
2022-12-23T11:14:38.000Z,56.40
2022-12-23T11:17:20.429Z,56.50
2022-12-23T11:19:49.689Z,56.60
2022-12-23T11:22:26.825Z,56.40
2022-12-23T11:24:55.374Z,56.90
2022-12-23T11:27:23.957Z,57.10
2022-12-23T11:29:56.483Z,57.30
2022-12-23T11:32:29.189Z,58.20
2022-12-23T11:34:58.546Z,57.80
2022-12-23T11:37:38.248Z,57.80
2022-12-23T11:40:16.625Z,57.90
2022-12-23T11:42:47.932Z,57.80
2022-12-23T11:45:28.596Z,57.70
2022-12-23T11:47:57.497Z,57.60
2022-12-23T11:50:34.988Z,57.90
2022-12-23T11:53:13.851Z,58.10
2022-12-23T11:56:00.660Z,57.90
2022-12-23T11:58:32.279Z,57.40
2022-12-23T12:01:15.039Z,57.60
2022-12-23T12:03:52.207Z,58.80
2022-12-23T12:06:22.786Z,57.70
2022-12-23T12:08:55.014Z,57.80
2022-12-23T12:11:28.468Z,57.70
2022-12-23T12:14:01.544Z,58.20
2022-12-23T12:16:56.388Z,57.30
2022-12-23T12:19:31.278Z,57.50
2022-12-23T12:22:12.055Z,57.40
2022-12-23T12:24:49.688Z,57.50
2022-12-23T12:27:20.990Z,57.30
2022-12-23T12:29:56.455Z,57.50
2022-12-23T12:32:39.753Z,57.60
2022-12-23T12:35:17.079Z,57.70
2022-12-23T12:37:51.276Z,58.00
2022-12-23T12:40:33.719Z,58.00
2022-12-23T12:43:18.061Z,58.20
2022-12-23T12:45:54.308Z,58.30
2022-12-23T12:48:40.440Z,58.20
2022-12-23T12:51:22.279Z,58.40
2022-12-23T12:54:17.829Z,58.50
2022-12-23T12:56:52.843Z,58.70
2022-12-23T12:59:28.454Z,58.90
2022-12-23T13:02:36.019Z,59.10
2022-12-23T13:05:34.214Z,59.40
2022-12-23T13:08:26.705Z,59.60
2022-12-23T13:11:06.366Z,59.50
2022-12-23T13:13:45.777Z,59.40
2022-12-23T13:16:31.571Z,59.40
2022-12-23T13:19:07.002Z,59.20
2022-12-23T13:21:48.112Z,58.90
2022-12-23T13:24:27.736Z,58.60
2022-12-23T13:27:08.699Z,58.60
2022-12-23T13:30:02.188Z,58.60
2022-12-23T13:32:49.310Z,58.90
2022-12-23T13:35:37.358Z,59.00
2022-12-23T13:38:25.949Z,59.20
2022-12-23T13:41:05.845Z,59.30
2022-12-23T13:43:44.864Z,59.30
2022-12-23T13:46:31.324Z,59.40
2022-12-23T13:49:07.834Z,59.60
2022-12-23T13:51:46.751Z,59.40
2022-12-23T13:54:36.251Z,59.30
2022-12-23T13:57:19.256Z,59.40
2022-12-23T14:00:06.059Z,59.30
2022-12-23T14:02:49.978Z,59.40
2022-12-23T14:05:41.167Z,59.20
2022-12-23T14:08:34.166Z,59.60
2022-12-23T14:11:16.094Z,59.70
2022-12-23T14:13:52.784Z,59.70
2022-12-23T14:16:37.433Z,59.70
2022-12-23T14:19:47.652Z,60.10
2022-12-23T14:22:43.325Z,60.40
2022-12-23T14:25:52.962Z,60.50
2022-12-23T14:28:59.184Z,60.60
2022-12-23T14:31:38.374Z,60.50
2022-12-23T14:34:26.501Z,60.50
2022-12-23T14:37:36.119Z,60.70
2022-12-23T14:40:50.314Z,60.90
2022-12-23T14:43:56.969Z,61.00
2022-12-23T14:46:59.594Z,61.20
2022-12-23T14:49:44.733Z,61.20
2022-12-23T14:52:50.508Z,61.40
2022-12-23T14:55:48.516Z,61.60
2022-12-23T14:58:51.488Z,61.60
2022-12-23T15:01:39.366Z,61.70
2022-12-23T15:04:17.843Z,61.50
2022-12-23T15:06:49.665Z,61.60
2022-12-23T15:09:27.368Z,61.10
2022-12-23T15:11:59.437Z,61.00
2022-12-23T15:14:35.749Z,61.30
2022-12-23T15:17:19.828Z,61.20
2022-12-23T15:19:49.103Z,61.50
2022-12-23T15:22:25.357Z,61.00
2022-12-23T15:24:58.780Z,61.20
2022-12-23T15:27:31.224Z,61.60
2022-12-23T15:29:59.896Z,61.60
2022-12-23T15:32:31.105Z,61.40
2022-12-23T15:35:05.721Z,61.60
2022-12-23T15:37:35.688Z,61.20
2022-12-23T15:40:12.816Z,61.00
2022-12-23T15:42:49.869Z,61.70
2022-12-23T15:45:35.298Z,60.80
2022-12-23T15:48:08.172Z,60.80
2022-12-23T15:50:42.872Z,60.60
2022-12-23T15:53:16.952Z,60.50
2022-12-23T15:55:46.683Z,60.40
2022-12-23T15:58:24.185Z,60.20
2022-12-23T16:00:57.638Z,60.50
2022-12-23T16:03:34.925Z,60.60
2022-12-23T16:06:20.050Z,60.50
2022-12-23T16:08:59.629Z,60.40
2022-12-23T16:11:52.125Z,60.10
2022-12-23T16:14:38.912Z,60.00
2022-12-23T16:17:24.217Z,59.80
2022-12-23T16:19:56.108Z,60.10
2022-12-23T16:22:30.078Z,60.10
2022-12-23T16:25:12.788Z,60.30
2022-12-23T16:27:45.238Z,61.10
2022-12-23T16:30:19.470Z,62.00
2022-12-23T16:32:53.048Z,62.40
2022-12-23T16:35:37.700Z,62.90
2022-12-23T16:38:17.416Z,62.10
2022-12-23T16:40:48.807Z,63.40
2022-12-23T16:43:18.931Z,64.60
2022-12-23T16:45:52.800Z,65.50
2022-12-23T16:48:30.570Z,64.90
2022-12-23T16:51:01.626Z,64.00
2022-12-23T16:53:30.123Z,64.10
2022-12-23T16:56:01.068Z,65.00
2022-12-23T16:58:30.722Z,64.90
2022-12-23T17:00:59.294Z,64.40
2022-12-23T17:03:27.837Z,64.30
2022-12-23T17:05:56.308Z,64.30
2022-12-23T17:08:26.221Z,64.30
2022-12-23T17:10:54.770Z,63.80
2022-12-23T17:13:23.249Z,64.20
2022-12-23T17:15:51.742Z,63.60
2022-12-23T17:18:21.237Z,63.80
2022-12-23T17:20:51.075Z,63.30
2022-12-23T17:23:33.172Z,63.40
2022-12-23T17:26:01.585Z,63.00
2022-12-23T17:28:33.608Z,64.60
2022-12-23T17:31:04.097Z,63.50
2022-12-23T17:33:35.743Z,63.40
2022-12-23T17:36:04.451Z,63.40
2022-12-23T17:38:34.394Z,62.80
2022-12-23T17:41:02.846Z,64.10
2022-12-23T17:43:31.370Z,64.20
2022-12-23T17:45:59.835Z,64.20
2022-12-23T17:48:31.929Z,63.80
2022-12-23T17:51:00.687Z,64.10
2022-12-23T17:53:29.165Z,64.10
2022-12-23T17:55:58.961Z,63.00
2022-12-23T17:58:27.434Z,62.40
2022-12-23T18:00:56.360Z,62.00
2022-12-23T18:03:26.153Z,62.80
2022-12-23T18:06:01.663Z,61.90
2022-12-23T18:08:30.698Z,63.10
2022-12-23T18:11:01.277Z,62.80
2022-12-23T18:13:29.756Z,62.00
2022-12-23T18:15:58.469Z,62.20
2022-12-23T18:18:37.749Z,62.00
2022-12-23T18:21:13.290Z,62.20
2022-12-23T18:23:45.068Z,61.90
2022-12-23T18:26:17.186Z,61.40
2022-12-23T18:28:46.278Z,60.80
2022-12-23T18:31:18.611Z,60.20
2022-12-23T18:33:51.241Z,59.90
2022-12-23T18:36:24.960Z,59.60
2022-12-23T18:38:54.927Z,60.10
2022-12-23T18:41:26.917Z,59.60
2022-12-23T18:43:55.551Z,59.80
2022-12-23T18:46:27.031Z,59.90
2022-12-23T18:48:55.694Z,61.50
2022-12-23T18:51:24.531Z,62.70
2022-12-23T18:53:53.210Z,63.20
2022-12-23T18:56:22.767Z,62.10
2022-12-23T18:58:52.745Z,61.00
2022-12-23T19:01:21.510Z,59.50
2022-12-23T19:03:50.237Z,59.90
2022-12-23T19:06:18.808Z,61.20
2022-12-23T19:08:47.532Z,62.30
2022-12-23T19:11:20.462Z,63.60
2022-12-23T19:13:49.545Z,63.50
2022-12-23T19:16:22.666Z,64.00
2022-12-23T19:18:51.828Z,63.40
2022-12-23T19:21:21.512Z,63.30
2022-12-23T19:23:50.331Z,63.80
2022-12-23T19:26:18.978Z,63.50
2022-12-23T19:28:49.164Z,62.90
2022-12-23T19:31:19.966Z,61.80
2022-12-23T19:33:49.088Z,61.20
2022-12-23T19:36:20.375Z,62.20
2022-12-23T19:38:49.205Z,64.40
2022-12-23T19:41:18.376Z,64.90
2022-12-23T19:43:48.230Z,65.20
2022-12-23T19:46:18.948Z,64.70
2022-12-23T19:48:53.066Z,64.80
2022-12-23T19:51:21.964Z,65.00
2022-12-23T19:53:53.097Z,65.40
2022-12-23T19:56:22.399Z,64.70
2022-12-23T19:58:51.805Z,64.60
2022-12-23T20:01:25.062Z,65.20
2022-12-23T20:03:56.437Z,66.10
2022-12-23T20:06:28.760Z,66.40
2022-12-23T20:09:03.500Z,65.80
2022-12-23T20:11:36.654Z,65.70
2022-12-23T20:14:06.671Z,67.20
2022-12-23T20:16:38.738Z,67.30
2022-12-23T20:19:08.045Z,67.60
2022-12-23T20:21:37.593Z,67.30
2022-12-23T20:24:07.475Z,66.70
2022-12-23T20:26:36.662Z,66.10
2022-12-23T20:29:06.047Z,65.00
2022-12-23T20:31:38.737Z,63.80
2022-12-23T20:34:09.660Z,63.90
2022-12-23T20:36:39.436Z,64.20
2022-12-23T20:39:08.555Z,64.20
2022-12-23T20:41:37.555Z,64.60
2022-12-23T20:44:33.995Z,65.30
2022-12-23T20:46:56.672Z,65.90
2022-12-23T20:49:25.335Z,66.00
2022-12-23T20:51:54.003Z,65.60
2022-12-23T20:54:27.958Z,65.70
2022-12-23T20:57:00.543Z,66.30
2022-12-23T20:59:29.206Z,66.50
2022-12-23T21:01:59.637Z,66.00
2022-12-23T21:04:28.673Z,65.80
2022-12-23T21:07:00.455Z,66.60
2022-12-23T21:09:29.150Z,66.70
2022-12-23T21:11:57.831Z,67.00
2022-12-23T21:14:26.457Z,68.00
2022-12-23T21:16:55.602Z,67.90
2022-12-23T21:19:27.669Z,68.60
2022-12-23T21:21:57.426Z,67.30
2022-12-23T21:24:26.348Z,66.90
2022-12-23T21:26:56.743Z,66.80
2022-12-23T21:29:26.587Z,66.60
2022-12-23T21:31:55.906Z,66.80
2022-12-23T21:34:26.243Z,67.10
2022-12-23T21:36:54.873Z,67.40
2022-12-23T21:39:23.544Z,67.40
2022-12-23T21:41:52.982Z,67.20
2022-12-23T21:44:21.647Z,66.50
2022-12-23T21:46:52.238Z,66.50
2022-12-23T21:49:21.841Z,65.20
2022-12-23T21:51:52.610Z,64.50
2022-12-23T21:54:22.571Z,64.60
2022-12-23T21:56:51.190Z,64.00
2022-12-23T21:59:19.762Z,64.10
2022-12-23T22:01:50.247Z,64.00
2022-12-23T22:04:18.858Z,64.50
2022-12-23T22:06:47.527Z,65.10
2022-12-23T22:09:20.030Z,65.30
2022-12-23T22:11:49.160Z,64.40
2022-12-23T22:14:20.811Z,63.70
2022-12-23T22:16:50.033Z,63.70
2022-12-23T22:19:18.701Z,62.90
2022-12-23T22:21:47.341Z,63.60
2022-12-23T22:24:17.484Z,62.90
2022-12-23T22:26:46.179Z,62.70
2022-12-23T22:29:14.839Z,62.70
2022-12-23T22:31:47.770Z,61.10
2022-12-23T22:34:19.515Z,62.20
2022-12-23T22:36:48.628Z,61.50
2022-12-23T22:39:21.980Z,61.30
2022-12-23T22:41:52.423Z,60.50
2022-12-23T22:44:22.283Z,60.80
2022-12-23T22:46:51.707Z,60.20
2022-12-23T22:49:20.421Z,59.80
2022-12-23T22:51:49.015Z,59.80
2022-12-23T22:54:19.072Z,59.40
2022-12-23T22:56:47.680Z,59.50
2022-12-23T22:59:23.205Z,59.50
2022-12-23T23:01:53.308Z,59.90
2022-12-23T23:04:22.229Z,60.10
2022-12-23T23:06:50.975Z,59.90
2022-12-23T23:09:23.528Z,59.40
2022-12-23T23:11:52.921Z,59.70
2022-12-23T23:14:22.095Z,59.20
2022-12-23T23:16:50.743Z,58.60
2022-12-23T23:19:20.677Z,58.60
2022-12-23T23:21:50.044Z,58.00
2022-12-23T23:24:18.657Z,57.60
2022-12-23T23:26:48.648Z,57.80
2022-12-23T23:29:17.183Z,57.60
2022-12-23T23:31:45.841Z,57.00
2022-12-23T23:34:14.948Z,58.00
2022-12-23T23:36:43.846Z,58.10
2022-12-23T23:39:14.008Z,58.20
2022-12-23T23:41:42.803Z,58.90
2022-12-23T23:44:13.736Z,58.60
2022-12-23T23:46:42.455Z,59.30
2022-12-23T23:49:11.350Z,59.20
2022-12-23T23:51:41.710Z,59.30
2022-12-23T23:54:10.821Z,59.70
2022-12-23T23:56:39.941Z,59.80
2022-12-23T23:59:10.010Z,59.00
